Time;durP1;ratioP1;P1;durP2;ratioP2;P2;SDS_P1;SDS_P2;PMS_P1;PMS_P2;Temp;Humidity;BMP_temperature;BMP_pressure;BME280_temperature;BME280_humidity;BME280_pressure;Samples;Min_cycle;Max_cycle;Signal;HPM_P1;HPM_P2
2021/04/19 00:00:24;;;;;;;34.08;18.88;;;;;;;5.96;68.38;96462.63;5051817;28;20052;-66
2021/04/19 00:02:50;;;;;;;30.17;18.52;;;;;;;5.92;68.70;96450.78;5052979;28;20041;-66
2021/04/19 00:05:18;;;;;;;33.13;20.20;;;;;;;5.94;68.79;96454.00;5051396;28;20428;-66
2021/04/19 00:07:45;;;;;;;35.58;19.70;;;;;;;5.87;69.10;96452.69;5053170;28;20053;-66
2021/04/19 00:10:14;;;;;;;30.70;18.80;;;;;;;5.79;69.43;96451.41;5051466;28;20099;-66
2021/04/19 00:12:41;;;;;;;34.05;19.50;;;;;;;5.84;69.04;96451.34;5052798;28;20045;-66
2021/04/19 00:15:09;;;;;;;35.70;20.25;;;;;;;5.84;69.22;96448.66;5051533;28;20053;-67
2021/04/19 00:17:35;;;;;;;32.47;19.55;;;;;;;5.89;69.23;96443.19;5052421;28;20044;-66
2021/04/19 00:20:01;;;;;;;32.17;19.45;;;;;;;5.80;69.41;96442.22;5052191;28;20126;-66
2021/04/19 00:22:27;;;;;;;34.15;20.38;;;;;;;5.75;69.73;96442.28;5051942;28;20052;-66
2021/04/19 00:24:53;;;;;;;33.38;19.35;;;;;;;5.76;69.62;96441.19;5052288;28;20041;-66
2021/04/19 00:27:19;;;;;;;35.10;21.23;;;;;;;5.74;69.69;96432.53;5051289;28;20566;-66
2021/04/19 00:29:45;;;;;;;37.47;22.08;;;;;;;5.78;69.64;96432.78;5052579;28;20049;-66
2021/04/19 00:32:11;;;;;;;35.08;20.52;;;;;;;5.80;69.21;96431.44;5048488;28;20056;-66
2021/04/19 00:34:37;;;;;;;33.28;19.88;;;;;;;5.72;69.83;96434.72;5052549;28;20070;-66
2021/04/19 00:37:04;;;;;;;36.65;20.13;;;;;;;5.78;69.29;96439.00;5050923;28;20125;-66
2021/04/19 00:39:30;;;;;;;35.45;21.80;;;;;;;5.80;69.18;96425.22;5052131;28;20500;-66
2021/04/19 00:41:56;;;;;;;33.13;19.60;;;;;;;5.80;69.41;96426.03;5050911;28;20043;-66
2021/04/19 00:44:23;;;;;;;34.40;20.95;;;;;;;5.82;69.36;96423.03;5051042;28;20377;-66
2021/04/19 00:46:50;;;;;;;34.00;20.48;;;;;;;5.75;69.34;96416.06;5051801;28;20057;-66
2021/04/19 00:49:16;;;;;;;37.40;21.05;;;;;;;5.75;69.52;96412.56;5051002;28;20084;-66
2021/04/19 00:51:42;;;;;;;33.72;20.20;;;;;;;5.80;69.35;96415.22;5051872;28;20053;-66
2021/04/19 00:54:09;;;;;;;35.30;21.80;;;;;;;5.78;69.43;96411.97;5050665;28;20156;-67
2021/04/19 00:56:36;;;;;;;34.65;20.63;;;;;;;5.79;69.22;96418.97;5052148;28;20044;-66
2021/04/19 00:59:02;;;;;;;33.38;20.00;;;;;;;5.78;69.59;96420.06;5050625;28;20045;-67
2021/04/19 01:01:32;;;;;;;34.25;21.05;;;;;;;5.80;69.54;96425.22;5052279;28;20049;-66
2021/04/19 01:04:00;;;;;;;37.90;20.80;;;;;;;5.80;69.46;96414.41;5051778;28;20094;-66
2021/04/19 01:06:26;;;;;;;36.35;21.40;;;;;;;5.73;69.82;96415.53;5051072;28;20045;-66
2021/04/19 01:08:52;;;;;;;34.15;20.80;;;;;;;5.68;69.96;96407.47;5051236;28;20098;-66
2021/04/19 01:11:18;;;;;;;35.92;21.30;;;;;;;5.68;70.11;96410.16;5050668;28;20056;-66
2021/04/19 01:13:44;;;;;;;34.63;20.35;;;;;;;5.73;70.16;96414.72;5051367;28;20049;-66
2021/04/19 01:16:10;;;;;;;35.45;20.80;;;;;;;5.70;69.92;96410.72;5050318;28;20045;-66
2021/04/19 01:18:36;;;;;;;34.85;19.52;;;;;;;5.70;70.24;96409.91;5051730;28;20416;-66
2021/04/19 01:21:03;;;;;;;36.00;21.88;;;;;;;5.49;70.87;96415.50;5049826;28;20070;-67
2021/04/19 01:23:29;;;;;;;37.63;21.75;;;;;;;5.45;70.96;96411.75;5051721;28;20047;-66
2021/04/19 01:25:55;;;;;;;35.88;21.67;;;;;;;5.48;70.97;96403.09;5050414;28;20041;-66
2021/04/19 01:28:21;;;;;;;37.15;21.02;;;;;;;5.47;71.00;96411.44;5051058;28;20048;-66
2021/04/19 01:30:51;;;;;;;39.58;21.85;;;;;;;5.48;70.98;96411.19;5050446;28;20497;-66
2021/04/19 01:33:18;;;;;;;39.17;21.98;;;;;;;5.45;70.84;96414.44;5050038;28;20515;-66
2021/04/19 01:35:44;;;;;;;36.97;22.00;;;;;;;5.46;70.84;96410.66;5050722;28;20044;-66
2021/04/19 01:38:15;;;;;;;36.13;21.98;;;;;;;5.47;70.91;96406.84;5050185;28;20057;-66
2021/04/19 01:40:41;;;;;;;39.50;21.77;;;;;;;5.47;70.82;96411.44;5050886;28;20048;-66
2021/04/19 01:43:08;;;;;;;38.75;22.50;;;;;;;5.39;70.96;96415.59;5049573;28;20061;-66
2021/04/19 01:45:34;;;;;;;38.33;22.42;;;;;;;5.44;70.97;96406.63;5051198;28;20049;-66
2021/04/19 01:48:01;;;;;;;37.88;22.30;;;;;;;5.37;71.12;96406.94;5050172;28;20051;-66
2021/04/19 01:50:29;;;;;;;40.88;22.23;;;;;;;5.24;71.34;96413.00;5050655;28;20079;-66
2021/04/19 01:52:57;;;;;;;38.03;21.45;;;;;;;5.07;72.02;96412.59;5049378;28;20044;-66
2021/04/19 01:55:26;;;;;;;38.80;22.08;;;;;;;5.06;72.15;96408.28;5049921;28;20059;-66
2021/04/19 01:57:55;;;;;;;38.15;21.63;;;;;;;5.04;72.31;96408.56;5050387;28;20044;-66
2021/04/19 02:00:24;;;;;;;38.72;21.85;;;;;;;5.06;72.22;96417.16;5049690;28;20049;-66
2021/04/19 02:02:56;;;;;;;37.25;21.85;;;;;;;5.08;71.93;96411.50;5050227;28;20053;-66
2021/04/19 02:05:30;;;;;;;36.78;21.92;;;;;;;5.13;71.87;96403.38;5049275;28;20052;-66
2021/04/19 02:08:07;;;;;;;37.33;21.65;;;;;;;5.22;71.72;96399.00;5050883;28;20496;-66
2021/04/19 02:10:41;;;;;;;38.20;22.00;;;;;;;5.23;71.59;96401.41;5050645;28;20045;-66
2021/04/19 02:13:11;;;;;;;;;;;;;;;5.26;71.62;96400.00;5050382;28;20049;-66
2021/04/19 02:15:51;;;;;;;37.38;21.13;;;;;;;5.19;71.60;96388.75;5050056;28;19924;-66
2021/04/19 02:18:27;;;;;;;38.03;22.33;;;;;;;5.17;71.80;96399.03;5049287;28;20083;-66
2021/04/19 02:20:58;;;;;;;37.00;21.58;;;;;;;5.18;71.98;96397.94;5050533;28;20048;-66
2021/04/19 02:23:28;;;;;;;35.15;20.05;;;;;;;5.13;71.65;96396.09;5048921;28;20063;-66
2021/04/19 02:25:59;;;;;;;36.55;21.42;;;;;;;5.10;72.07;96393.13;5050441;28;20562;-66
2021/04/19 02:28:28;;;;;;;34.42;20.08;;;;;;;5.16;71.68;96400.91;5049079;28;20045;-66
2021/04/19 02:31:00;;;;;;;34.55;20.83;;;;;;;5.15;72.00;96398.50;5050011;28;20049;-66
2021/04/19 02:33:32;;;;;;;36.88;20.92;;;;;;;5.11;71.87;96398.25;5049023;28;20090;-66
2021/04/19 02:35:59;;;;;;;37.55;21.77;;;;;;;5.12;72.22;96390.97;5049725;28;20045;-66
2021/04/19 02:38:29;;;;;;;35.15;20.52;;;;;;;5.17;72.04;96390.94;5049787;28;20068;-66
2021/04/19 02:41:01;;;;;;;35.03;19.65;;;;;;;5.10;71.93;96393.13;5049198;28;20044;-66
2021/04/19 02:43:30;;;;;;;35.80;20.60;;;;;;;5.09;72.20;96391.53;5050197;28;20179;-66
2021/04/19 02:45:56;;;;;;;38.28;21.63;;;;;;;5.02;72.49;96399.16;5049225;28;20045;-66
2021/04/19 02:48:24;;;;;;;37.25;21.38;;;;;;;4.94;72.80;96392.44;5049690;28;20052;-66
2021/04/19 02:50:51;;;;;;;35.65;20.48;;;;;;;4.95;72.52;96388.66;5049240;28;20071;-66
2021/04/19 02:53:18;;;;;;;35.20;20.20;;;;;;;4.91;72.80;96388.41;5049352;28;20059;-66
2021/04/19 02:55:45;;;;;;;38.40;21.00;;;;;;;4.85;73.11;96384.13;5049785;28;20059;-65
2021/04/19 02:58:14;;;;;;;41.50;21.30;;;;;;;4.87;73.06;96379.28;5048895;28;20396;-66
2021/04/19 03:00:44;;;;;;;34.35;20.02;;;;;;;4.91;72.77;96385.72;5049764;28;20057;-66
2021/04/19 03:03:13;;;;;;;36.47;20.98;;;;;;;5.02;72.59;96382.97;5047971;28;20052;-66
2021/04/19 03:05:43;;;;;;;36.00;20.90;;;;;;;5.10;72.33;96395.81;5052641;28;20524;-66
2021/04/19 03:08:14;;;;;;;36.35;20.92;;;;;;;5.14;72.03;96391.47;5052426;28;20048;-66
2021/04/19 03:10:44;;;;;;;34.03;20.00;;;;;;;5.13;71.89;96398.78;5054143;28;20049;-66
2021/04/19 03:13:12;;;;;;;35.28;20.58;;;;;;;5.15;71.70;96398.50;5052872;28;20056;-66
2021/04/19 03:15:41;;;;;;;34.10;19.98;;;;;;;5.18;71.77;96397.94;5053426;28;20048;-65
2021/04/19 03:18:10;;;;;;;32.30;19.05;;;;;;;5.23;71.68;96395.19;5053107;28;20443;-68
2021/04/19 03:20:46;;;;;;;35.08;20.45;;;;;;;5.29;71.31;96398.66;5053084;28;20084;-68
2021/04/19 03:23:13;;;;;;;36.58;21.23;;;;;;;5.31;71.54;96397.28;5053608;28;20056;-68
2021/04/19 03:25:41;;;;;;;36.67;20.73;;;;;;;5.37;71.03;96395.34;5052672;28;20091;-68
2021/04/19 03:28:09;;;;;;;35.53;19.30;;;;;;;5.31;70.75;96391.06;5053529;28;20044;-68
2021/04/19 03:30:36;;;;;;;34.67;20.23;;;;;;;5.29;70.87;96399.47;5052640;28;20045;-67
2021/04/19 03:33:04;;;;;;;33.47;19.45;;;;;;;5.25;71.32;96398.41;5052582;28;20074;-68
2021/04/19 03:35:33;;;;;;;35.45;20.10;;;;;;;5.25;71.52;96406.50;5052997;28;20423;-66
2021/04/19 03:38:00;;;;;;;34.05;20.00;;;;;;;5.28;71.16;96403.25;5053016;28;20072;-65
2021/04/19 03:40:29;;;;;;;36.67;20.38;;;;;;;5.29;71.38;96404.06;5053157;28;20085;-66
2021/04/19 03:42:59;;;;;;;33.70;19.83;;;;;;;5.33;71.06;96415.91;5052397;28;20049;-65
2021/04/19 03:45:27;;;;;;;36.50;20.88;;;;;;;5.35;71.12;96408.31;5053047;28;20045;-66
2021/04/19 03:47:56;;;;;;;35.63;19.75;;;;;;;5.37;71.30;96406.94;5052078;28;20076;-66
2021/04/19 03:50:26;;;;;;;37.42;21.77;;;;;;;5.32;71.14;96412.38;5052975;28;20048;-65
2021/04/19 03:52:54;;;;;;;36.83;21.13;;;;;;;5.28;71.05;96419.47;5052415;28;20055;-66
2021/04/19 03:55:28;;;;;;;34.95;20.77;;;;;;;5.31;71.06;96418.06;5052317;28;20064;-66
2021/04/19 03:58:02;;;;;;;35.13;19.92;;;;;;;5.37;71.11;96406.94;5052913;28;20115;-68
2021/04/19 04:03:51;;;;;;;35.35;21.50;;;;;;;5.38;71.20;96413.97;5049625;28;20059;-66
2021/04/19 04:06:18;;;;;;;38.55;20.73;;;;;;;5.45;71.07;96414.44;5051704;28;20098;-66
2021/04/19 04:08:44;;;;;;;36.10;20.63;;;;;;;5.49;70.51;96409.28;5052726;28;20046;-66
2021/04/19 04:11:12;;;;;;;34.83;20.27;;;;;;;5.50;70.59;96410.91;5051909;28;20791;-65
2021/04/19 04:13:38;;;;;;;36.40;21.27;;;;;;;5.42;70.65;96415.00;5052870;28;20041;-66
2021/04/19 04:16:04;;;;;;;35.85;21.10;;;;;;;5.39;70.60;96407.47;5051392;28;20048;-68
2021/04/19 04:18:30;;;;;;;35.50;20.48;;;;;;;5.32;70.61;96409.69;5050912;28;20071;-67
2021/04/19 04:20:57;;;;;;;37.70;21.10;;;;;;;5.18;71.48;96403.34;5053015;28;20052;-66
2021/04/19 04:23:23;;;;;;;39.38;22.02;;;;;;;5.08;71.98;96415.00;5050952;28;20132;-68
2021/04/19 04:25:51;;;;;;;34.47;20.55;;;;;;;5.15;71.80;96409.28;5052857;28;20045;-68
2021/04/19 04:28:17;;;;;;;35.78;20.65;;;;;;;5.07;71.95;96410.72;5051253;28;20051;-68
2021/04/19 04:30:43;;;;;;;35.75;20.30;;;;;;;5.07;72.09;96407.22;5051953;28;20045;-68
2021/04/19 04:33:09;;;;;;;38.60;22.02;;;;;;;5.08;72.05;96414.22;5048492;28;20107;-68
2021/04/19 04:35:37;;;;;;;34.83;20.90;;;;;;;5.09;71.85;96415.81;5052070;28;20053;-68
2021/04/19 04:38:04;;;;;;;35.08;19.92;;;;;;;5.11;71.79;96413.63;5051672;28;20048;-68
2021/04/19 04:40:31;;;;;;;34.13;20.30;;;;;;;5.18;71.93;96414.13;5051237;28;20056;-68
2021/04/19 04:43:02;;;;;;;36.33;20.52;;;;;;;5.22;71.51;96415.19;5052308;28;20061;-68
2021/04/19 04:45:29;;;;;;;39.10;21.52;;;;;;;5.27;71.79;96417.81;5051102;28;20502;-66
2021/04/19 04:47:59;;;;;;;38.00;21.10;;;;;;;5.28;71.22;96419.47;5052478;28;20499;-68
2021/04/19 04:50:32;;;;;;;39.67;20.70;;;;;;;5.33;71.33;96421.31;5051895;28;20515;-68
2021/04/19 04:53:03;;;;;;;37.60;20.67;;;;;;;5.40;70.87;96428.00;5051908;28;20045;-67
2021/04/19 04:55:31;;;;;;;35.47;20.00;;;;;;;5.37;70.65;96417.75;5051256;28;20044;-66
2021/04/19 04:57:58;;;;;;;37.20;21.38;;;;;;;5.42;70.95;96415.00;5051493;28;20048;-66
2021/04/19 05:00:25;;;;;;;37.40;20.60;;;;;;;5.45;70.87;96422.53;5051074;28;20064;-68
2021/04/19 05:02:53;;;;;;;33.65;19.98;;;;;;;5.47;70.84;96417.66;5050258;28;20504;-67
2021/04/19 05:05:19;;;;;;;37.78;21.08;;;;;;;5.43;70.75;96411.22;5051661;28;20057;-68
2021/04/19 05:07:46;;;;;;;36.53;20.67;;;;;;;5.50;70.58;96419.81;5050653;28;20048;-67
2021/04/19 05:10:13;;;;;;;39.10;21.48;;;;;;;5.54;70.75;96419.25;5051567;28;20059;-68
2021/04/19 05:12:41;;;;;;;33.30;19.70;;;;;;;5.57;70.58;96416.75;5050868;28;20052;-67
2021/04/19 05:15:12;;;;;;;36.15;20.45;;;;;;;5.58;70.46;96422.97;5050945;28;20092;-68
2021/04/19 05:17:38;;;;;;;31.77;20.08;;;;;;;5.57;70.67;96421.34;5051341;28;20048;-66
2021/04/19 05:20:06;;;;;;;34.03;21.02;;;;;;;5.62;70.77;96418.63;5050503;28;20056;-68
2021/04/19 05:22:32;;;;;;;37.42;21.17;;;;;;;5.55;70.59;96418.16;5051363;28;20094;-67
2021/04/19 05:24:58;;;;;;;39.00;20.65;;;;;;;5.49;70.89;96415.50;5050489;28;20123;-68
2021/04/19 05:27:24;;;;;;;34.03;21.38;;;;;;;5.50;71.12;96419.81;5050599;28;20069;-68
2021/04/19 05:29:51;;;;;;;37.67;20.92;;;;;;;5.38;71.17;96413.97;5050196;28;20049;-67
2021/04/19 05:32:21;;;;;;;36.50;20.92;;;;;;;5.35;71.49;96413.72;5050480;28;20064;-67
2021/04/19 05:34:47;;;;;;;38.42;20.70;;;;;;;5.24;72.02;96413.00;5050425;28;20037;-67
2021/04/19 05:37:14;;;;;;;36.92;21.17;;;;;;;5.23;71.93;96408.69;5050331;28;20045;-68
2021/04/19 05:39:41;;;;;;;36.30;20.83;;;;;;;5.23;72.16;96412.19;5050451;28;20067;-75
2021/04/19 05:42:08;;;;;;;39.70;21.35;;;;;;;5.28;72.16;96413.25;5050202;28;20504;-73
2021/04/19 05:44:36;;;;;;;35.45;21.08;;;;;;;5.26;71.95;96416.22;5048725;28;20044;-72
2021/04/19 05:47:03;;;;;;;39.92;22.02;;;;;;;5.26;72.03;96418.13;5048943;28;20075;-72
2021/04/19 05:49:29;;;;;;;39.25;21.02;;;;;;;5.21;72.18;96425.16;5050329;28;20049;-72
2021/04/19 05:51:58;;;;;;;35.92;21.00;;;;;;;5.22;72.27;96415.19;5049426;28;20548;-71
2021/04/19 05:54:26;;;;;;;42.15;21.83;;;;;;;5.03;72.79;96428.53;5050448;28;20481;-72
2021/04/19 05:57:08;;;;;;;41.03;22.05;;;;;;;5.07;73.13;96428.81;5049503;28;20045;-72
2021/04/19 05:59:41;;;;;;;40.20;21.10;;;;;;;5.17;72.86;96417.94;5050574;28;20075;-73
2021/04/19 06:02:11;;;;;;;39.58;21.27;;;;;;;5.21;72.75;96418.94;5048408;28;20045;-69
2021/04/19 06:04:45;;;;;;;36.38;21.65;;;;;;;5.29;72.49;96415.66;5049775;28;20049;-72
2021/04/19 06:07:13;;;;;;;33.42;20.38;;;;;;;5.43;72.46;96424.72;5050276;28;20132;-72
2021/04/19 06:09:46;;;;;;;37.20;21.38;;;;;;;5.54;72.38;96425.44;5049812;28;20052;-70
2021/04/19 06:12:17;;;;;;;37.25;22.08;;;;;;;5.60;71.80;96423.50;5050642;28;20413;-72
2021/04/19 06:14:45;;;;;;;34.22;21.42;;;;;;;5.59;72.21;96425.41;5049816;28;20041;-70
2021/04/19 06:17:13;;;;;;;36.72;21.38;;;;;;;5.65;71.37;96426.97;5049805;28;20045;-70
2021/04/19 06:19:43;;;;;;;37.13;20.98;;;;;;;5.62;71.58;96432.13;5050008;28;20079;-70
2021/04/19 06:22:13;;;;;;;42.75;22.63;;;;;;;5.68;72.27;96425.56;5049806;28;20051;-70
2021/04/19 06:24:43;;;;;;;39.78;22.23;;;;;;;5.65;71.66;96426.16;5049949;28;20049;-72
2021/04/19 06:27:09;;;;;;;38.15;21.73;;;;;;;5.67;71.80;96430.19;5049430;28;20049;-71
2021/04/19 06:29:35;;;;;;;36.10;21.00;;;;;;;5.72;72.10;96429.31;5049894;28;20511;-70
2021/04/19 06:32:01;;;;;;;38.00;21.50;;;;;;;5.74;71.95;96421.72;5049200;28;20049;-70
2021/04/19 06:34:28;;;;;;;39.13;22.15;;;;;;;5.83;71.81;96422.72;5050642;28;20045;-71
2021/04/19 06:36:54;;;;;;;36.75;22.05;;;;;;;5.83;71.23;96420.03;5049813;28;20049;-70
2021/04/19 06:39:21;;;;;;;37.22;21.15;;;;;;;5.93;71.63;96428.06;5049280;28;20051;-69
2021/04/19 06:41:47;;;;;;;36.97;21.45;;;;;;;5.94;71.55;96421.56;5049689;28;20691;-70
2021/04/19 06:44:14;;;;;;;38.60;22.02;;;;;;;5.93;71.16;96425.34;5049322;28;20416;-70
2021/04/19 06:46:42;;;;;;;38.55;22.48;;;;;;;5.91;71.76;96427.56;5049732;28;20049;-70
2021/04/19 06:49:09;;;;;;;33.88;20.85;;;;;;;5.93;71.68;96425.34;5049137;28;20118;-70
2021/04/19 06:51:37;;;;;;;38.45;21.73;;;;;;;5.99;72.05;96429.63;5050235;28;20574;-70
2021/04/19 06:54:05;;;;;;;37.40;22.13;;;;;;;6.10;71.80;96426.81;5049123;28;20059;-70
2021/04/19 06:56:35;;;;;;;39.83;22.92;;;;;;;6.21;71.64;96420.19;5050171;28;20049;-70
2021/04/19 06:59:01;;;;;;;38.13;21.58;;;;;;;6.29;71.07;96422.25;5049247;28;20068;-70
2021/04/19 07:01:30;;;;;;;37.10;22.25;;;;;;;6.42;71.14;96427.00;5050049;28;20037;-70
2021/04/19 07:03:58;;;;;;;37.05;21.77;;;;;;;6.54;70.46;96418.44;5048686;28;20534;-70
2021/04/19 07:06:27;;;;;;;37.17;21.63;;;;;;;6.62;70.32;96425.09;5049443;28;20400;-70
2021/04/19 07:09:00;;;;;;;34.42;21.50;;;;;;;6.65;69.98;96421.81;5049670;28;20127;-70
2021/04/19 07:11:28;;;;;;;;;;;;;;;6.76;70.16;96420.59;5049808;28;20041;-70
2021/04/19 07:13:54;;;;;;;36.33;20.98;;;;;;;6.78;69.61;96418.38;5050013;28;20363;-71
2021/04/19 07:16:21;;;;;;;35.40;21.45;;;;;;;6.93;69.98;96420.06;5048753;28;20049;-70
2021/04/19 07:18:47;;;;;;;34.10;19.95;;;;;;;7.06;69.23;96424.78;5050339;28;20493;-70
2021/04/19 07:21:13;;;;;;;35.20;20.52;;;;;;;7.11;69.29;96415.78;5048627;28;20041;-70
2021/04/19 07:23:40;;;;;;;35.28;20.58;;;;;;;7.09;68.83;96424.16;5050007;28;20091;-70
2021/04/19 07:26:07;;;;;;;37.15;20.48;;;;;;;7.27;68.87;96419.84;5048760;28;20087;-71
2021/04/19 07:28:37;;;;;;;34.58;20.10;;;;;;;7.50;68.89;96408.06;5049800;28;20385;-70
2021/04/19 07:31:05;;;;;;;36.08;20.42;;;;;;;7.78;69.07;96408.97;5049118;28;20053;-70
2021/04/19 07:33:33;;;;;;;32.20;19.23;;;;;;;8.10;68.50;96404.59;5048647;28;20041;-70
2021/04/19 07:36:28;;;;;;;32.75;19.80;;;;;;;8.44;66.16;96412.34;5049952;28;20049;-70
2021/04/19 07:38:55;;;;;;;35.28;19.67;;;;;;;8.55;64.90;96413.72;5048957;28;20053;-70
2021/04/19 07:41:42;;;;;;;37.38;20.80;;;;;;;8.71;65.08;96402.53;5049518;28;20052;-70
2021/04/19 07:44:09;;;;;;;29.40;18.23;;;;;;;9.24;63.75;96407.31;5048738;28;20119;-71
2021/04/19 07:46:35;;;;;;;30.60;19.48;;;;;;;9.38;63.11;96410.78;5049464;28;20045;-71
2021/04/19 07:49:08;;;;;;;30.25;18.83;;;;;;;9.83;62.26;96399.91;5049643;28;20041;-71
2021/04/19 07:51:36;;;;;;;33.20;19.63;;;;;;;10.22;62.37;96406.47;5049606;28;20049;-71
2021/04/19 07:54:22;;;;;;;27.13;17.85;;;;;;;10.46;60.64;96401.47;5053249;28;20136;-71
2021/04/19 07:57:06;;;;;;;30.73;18.63;;;;;;;10.61;59.38;96398.31;5052715;28;20106;-71
2021/04/19 07:59:34;;;;;;;30.88;18.30;;;;;;;11.01;60.41;96400.94;5053083;28;20106;-71
2021/04/19 08:02:01;;;;;;;30.23;19.00;;;;;;;11.17;58.69;96410.25;5051580;28;20048;-71
2021/04/19 08:04:28;;;;;;;32.30;18.80;;;;;;;11.07;57.31;96399.69;5052656;28;20055;-71
2021/04/19 08:06:55;;;;;;;33.33;19.92;;;;;;;10.57;57.62;96394.63;5052938;28;20059;-71
2021/04/19 08:09:25;;;;;;;31.88;19.52;;;;;;;10.17;59.91;96410.13;5052175;28;20107;-71
2021/04/19 08:11:57;;;;;;;34.53;20.00;;;;;;;9.91;60.16;96408.09;5053217;28;20049;-71
2021/04/19 08:14:24;;;;;;;34.70;19.10;;;;;;;9.86;62.39;96405.50;5051779;28;20124;-71
2021/04/19 08:17:05;;;;;;;36.10;19.27;;;;;;;10.00;62.04;96402.69;5053398;28;20088;-71
2021/04/19 08:19:33;;;;;;;34.25;19.08;;;;;;;10.00;61.32;96399.97;5052164;28;20045;-71
2021/04/19 08:22:12;;;;;;;32.08;18.70;;;;;;;9.95;59.76;96402.84;5052689;28;20072;-71
2021/04/19 08:24:38;;;;;;;30.23;19.40;;;;;;;9.87;60.64;96400.88;5052613;28;20392;-71
2021/04/19 08:27:05;;;;;;;33.28;19.60;;;;;;;9.86;61.66;96399.25;5051637;28;20056;-71
2021/04/19 08:29:38;;;;;;;34.08;18.90;;;;;;;9.96;61.52;96396.28;5052672;28;20500;-71
2021/04/19 08:32:07;;;;;;;34.72;20.35;;;;;;;9.97;61.48;96400.63;5051117;28;20122;-71
2021/04/19 08:34:35;;;;;;;32.85;19.30;;;;;;;10.20;61.56;96395.91;5052539;28;20446;-71
2021/04/19 08:37:02;;;;;;;36.70;19.67;;;;;;;10.14;60.80;96400.69;5051477;28;20133;-71
2021/04/19 08:39:28;;;;;;;35.05;20.10;;;;;;;10.25;62.06;96389.56;5052168;28;20504;-71
2021/04/19 08:41:55;;;;;;;34.08;18.13;;;;;;;10.24;62.35;96399.66;5051848;28;20059;-71
2021/04/19 08:44:21;;;;;;;30.08;18.88;;;;;;;10.37;61.77;96409.59;5051481;28;20064;-71
2021/04/19 08:46:47;;;;;;;36.83;19.73;;;;;;;10.39;61.47;96406.59;5052478;28;20091;-71
2021/04/19 08:49:14;;;;;;;31.80;19.50;;;;;;;10.42;61.43;96405.94;5051313;28;20587;-71
2021/04/19 08:51:40;;;;;;;32.53;20.27;;;;;;;10.46;59.92;96412.38;5052103;28;20052;-71
2021/04/19 08:54:06;;;;;;;31.35;19.17;;;;;;;10.22;60.09;96406.47;5051221;28;20052;-71
2021/04/19 08:56:33;;;;;;;33.55;18.92;;;;;;;10.12;62.32;96411.06;5052445;28;20049;-71
2021/04/19 08:59:00;;;;;;;32.88;18.90;;;;;;;10.18;62.84;96404.41;5051177;28;20310;-71
2021/04/19 09:01:28;;;;;;;34.97;19.58;;;;;;;10.17;61.24;96400.06;5051894;28;20073;-71
2021/04/19 09:04:02;;;;;;;32.50;18.88;;;;;;;10.26;62.09;96396.59;5050638;28;20094;-71
2021/04/19 09:06:39;;;;;;;;;;;;;;;10.60;61.93;96396.72;5052085;28;20087;-71
2021/04/19 09:09:05;;;;;;;32.55;18.00;;;;;;;10.87;62.58;96394.84;5051040;28;19932;-71
2021/04/19 09:11:31;;;;;;;29.00;17.70;;;;;;;11.10;59.37;96404.47;5051438;28;20052;-71
2021/04/19 09:14:03;;;;;;;28.95;18.73;;;;;;;11.24;58.55;96405.13;5052028;28;20119;-71
2021/04/19 09:16:35;;;;;;;31.55;18.30;;;;;;;11.28;57.99;96405.28;5050664;28;20067;-71
2021/04/19 09:19:02;;;;;;;30.60;17.70;;;;;;;11.48;57.65;96398.34;5052141;28;20041;-71
2021/04/19 09:21:40;;;;;;;29.60;16.90;;;;;;;11.76;58.89;96401.53;5050306;28;20120;-71
2021/04/19 09:24:08;;;;;;;29.88;17.80;;;;;;;12.03;55.93;96397.66;5051099;28;20074;-71
2021/04/19 09:26:50;;;;;;;28.40;17.88;;;;;;;12.31;57.25;96402.69;5051260;28;20397;-71
2021/04/19 09:29:45;;;;;;;28.85;16.60;;;;;;;12.53;54.56;96394.25;5050733;28;20110;-71
2021/04/19 09:32:20;;;;;;;28.80;17.52;;;;;;;12.60;54.56;96397.25;5051225;28;20382;-71
2021/04/19 09:34:48;;;;;;;29.20;16.98;;;;;;;12.52;54.55;96393.41;5050880;28;20440;-71
2021/04/19 09:37:17;;;;;;;30.98;17.60;;;;;;;12.63;55.38;96398.50;5051116;28;20047;-71
2021/04/19 09:39:56;;;;;;;25.23;15.18;;;;;;;12.66;55.62;96393.19;5050865;28;20041;-71
2021/04/19 09:43:04;;;;;;;23.48;15.30;;;;;;;13.12;54.66;96390.66;5050630;28;20041;-71
2021/04/19 09:45:53;;;;;;;24.33;15.35;;;;;;;13.53;52.34;96387.13;5051376;28;20099;-71
2021/04/19 09:48:42;;;;;;;21.27;12.93;;;;;;;13.30;50.56;96394.88;5050094;28;20451;-71
2021/04/19 09:51:15;;;;;;;24.80;14.07;;;;;;;13.21;52.04;96392.22;5050667;28;20053;-71
2021/04/19 09:53:50;;;;;;;26.33;16.13;;;;;;;12.96;51.90;96377.56;5050973;28;20389;-71
2021/04/19 09:56:21;;;;;;;27.75;15.00;;;;;;;12.90;51.58;96383.59;5049802;28;20094;-71
2021/04/19 09:58:47;;;;;;;21.90;13.90;;;;;;;12.99;51.30;96378.84;5051290;28;20053;-71
2021/04/19 10:01:14;;;;;;;20.60;12.00;;;;;;;12.92;50.90;96378.56;5049562;28;20515;-71
2021/04/19 10:03:41;;;;;;;21.60;13.23;;;;;;;12.83;50.66;96375.09;5051425;28;20048;-71
2021/04/19 10:06:08;;;;;;;21.02;12.88;;;;;;;12.84;51.24;96380.22;5049807;28;20037;-71
2021/04/19 10:08:36;;;;;;;24.85;14.13;;;;;;;12.37;50.71;96374.06;5050853;28;20135;-71
2021/04/19 10:11:03;;;;;;;24.27;15.45;;;;;;;12.35;51.59;96370.88;5049854;28;20068;-71
2021/04/19 10:13:31;;;;;;;23.88;15.23;;;;;;;12.33;52.62;96379.41;5050509;28;20049;-71
2021/04/19 10:16:02;;;;;;;23.50;14.50;;;;;;;12.42;52.44;96371.94;5050003;28;20407;-71
2021/04/19 10:18:32;;;;;;;22.25;12.98;;;;;;;12.48;51.01;96369.84;5049970;28;20049;-71
2021/04/19 10:20:58;;;;;;;21.88;13.73;;;;;;;12.61;51.08;96376.19;5050974;28;20060;-70
2021/04/19 10:23:32;;;;;;;24.63;14.60;;;;;;;12.63;51.38;96368.47;5049244;28;20055;-71
2021/04/19 10:25:58;;;;;;;24.95;14.63;;;;;;;12.63;51.84;96369.25;5051145;28;20049;-71
2021/04/19 10:28:29;;;;;;;24.52;15.13;;;;;;;12.75;52.81;96358.44;5049432;28;20132;-71
2021/04/19 10:31:10;;;;;;;22.67;14.35;;;;;;;13.00;50.23;96359.38;5050592;28;20052;-71
2021/04/19 10:33:37;;;;;;;21.30;12.63;;;;;;;13.01;50.80;96354.72;5050175;28;20041;-70
2021/04/19 10:36:14;;;;;;;20.83;12.85;;;;;;;13.32;47.85;96348.84;5050552;28;20041;-71
2021/04/19 10:38:40;;;;;;;21.35;11.77;;;;;;;13.30;48.50;96351.13;5050985;28;20444;-71
2021/04/19 10:41:06;;;;;;;19.17;12.68;;;;;;;13.26;47.61;96342.81;5049312;28;20680;-71
2021/04/19 10:43:34;;;;;;;23.23;13.43;;;;;;;13.31;47.30;96342.59;5050622;28;20106;-71
2021/04/19 10:46:00;;;;;;;23.00;14.30;;;;;;;13.07;49.35;96332.31;5050826;28;20072;-70
2021/04/19 10:48:27;;;;;;;23.23;14.75;;;;;;;12.89;50.18;96343.69;5049965;28;20048;-71
2021/04/19 10:50:59;;;;;;;23.55;13.88;;;;;;;12.48;54.58;96339.81;5049849;28;20041;-71
2021/04/19 10:53:32;;;;;;;22.15;13.88;;;;;;;11.54;55.31;96342.56;5049636;28;20125;-70
2021/04/19 10:55:59;;;;;;;24.67;14.95;;;;;;;10.91;58.58;96342.13;5050367;28;20041;-71
2021/04/19 10:58:25;;;;;;;23.15;14.20;;;;;;;10.39;61.72;96343.97;5049096;28;20393;-71
2021/04/19 11:00:52;;;;;;;22.35;15.38;;;;;;;10.17;62.71;96340.19;5050263;28;20504;-70
2021/04/19 11:03:18;;;;;;;26.48;15.45;;;;;;;10.05;63.22;96337.28;5048957;28;20053;-71
2021/04/19 11:05:44;;;;;;;25.60;15.95;;;;;;;9.91;62.62;96336.56;5050538;28;20045;-70
2021/04/19 11:08:10;;;;;;;27.23;17.17;;;;;;;9.83;63.57;96334.63;5049023;28;20049;-70
2021/04/19 11:10:37;;;;;;;26.65;15.50;;;;;;;9.91;63.40;96331.13;5050382;28;20052;-70
2021/04/19 11:13:04;;;;;;;28.00;16.83;;;;;;;9.90;64.51;96322.16;5048964;28;20041;-71
2021/04/19 11:15:37;;;;;;;26.45;17.17;;;;;;;10.01;63.88;96319.16;5049812;28;20052;-70
2021/04/19 11:18:18;;;;;;;26.60;16.40;;;;;;;10.22;65.26;96320.19;5049477;28;20049;-72
2021/04/19 11:20:44;;;;;;;24.23;15.02;;;;;;;10.35;59.97;96322.03;5049253;28;20048;-71
2021/04/19 11:23:25;;;;;;;23.05;14.10;;;;;;;10.49;60.16;96313.72;5050076;28;20420;-71
2021/04/19 11:25:51;;;;;;;30.60;16.70;;;;;;;10.54;58.70;96310.84;5050171;28;20045;-70
2021/04/19 11:28:20;;;;;;;25.85;15.68;;;;;;;10.68;59.79;96311.50;5053784;28;20094;-71
2021/04/19 11:30:52;;;;;;;24.65;15.65;;;;;;;10.71;58.91;96310.88;5053358;28;20045;-71
2021/04/19 11:33:23;;;;;;;23.80;14.68;;;;;;;10.81;59.81;96306.22;5052962;28;20051;-70
2021/04/19 11:35:50;;;;;;;25.70;15.05;;;;;;;10.93;57.04;96306.38;5053400;28;20045;-71